createdAt,value
2018-03-24T00:01:33.973Z,95.13
2018-03-24T00:04:03.792Z,95.06
2018-03-24T00:06:33.699Z,94.98
2018-03-24T00:09:03.279Z,94.95
2018-03-24T00:11:33.227Z,95.00
2018-03-24T00:14:02.918Z,95.04
2018-03-24T00:16:33.214Z,95.13
2018-03-24T00:19:03.059Z,95.25
2018-03-24T00:21:32.965Z,95.40
2018-03-24T00:24:02.785Z,95.58
2018-03-24T00:26:32.671Z,95.71
2018-03-24T00:29:02.561Z,95.87
2018-03-24T00:31:32.433Z,96.00
2018-03-24T00:34:02.503Z,96.09
2018-03-24T00:36:32.372Z,96.14
2018-03-24T00:39:02.247Z,96.20
2018-03-24T00:41:43.290Z,96.24
2018-03-24T00:44:15.550Z,96.33
2018-03-24T00:46:45.440Z,96.36
2018-03-24T00:49:15.374Z,96.37
2018-03-24T00:51:45.950Z,96.36
2018-03-24T00:54:15.828Z,96.33
2018-03-24T00:56:53.937Z,96.37
2018-03-24T00:59:36.485Z,96.43
2018-03-24T01:02:23.755Z,96.50
2018-03-24T01:04:58.688Z,96.53
2018-03-24T01:07:28.449Z,96.56
2018-03-24T01:09:58.402Z,96.59
2018-03-24T01:12:28.381Z,96.62
2018-03-24T01:14:58.427Z,96.62
2018-03-24T01:17:29.301Z,96.62
2018-03-24T01:20:05.867Z,96.52
2018-03-24T01:22:39.389Z,96.44
2018-03-24T01:25:09.214Z,96.38
2018-03-24T01:27:39.133Z,96.35
2018-03-24T01:30:09.063Z,96.30
2018-03-24T01:32:38.899Z,96.25
2018-03-24T01:35:09.430Z,96.21
2018-03-24T01:37:39.303Z,96.17
2018-03-24T01:40:09.169Z,96.13
2018-03-24T01:42:39.035Z,96.10
2018-03-24T01:45:08.751Z,96.00
2018-03-24T01:47:38.781Z,95.87
2018-03-24T01:50:08.610Z,95.79
2018-03-24T01:52:38.473Z,95.77
2018-03-24T01:55:08.025Z,95.75
2018-03-24T01:57:38.232Z,95.73
2018-03-24T02:00:11.920Z,95.75
2018-03-24T02:02:43.730Z,95.81
2018-03-24T02:05:14.235Z,95.79
2018-03-24T02:07:43.856Z,95.83
2018-03-24T02:10:13.746Z,95.84
2018-03-24T02:12:43.708Z,95.84
2018-03-24T02:15:13.394Z,95.85
2018-03-24T02:17:43.012Z,95.79
2018-03-24T02:20:15.534Z,95.72
2018-03-24T02:22:45.710Z,95.67
2018-03-24T02:25:16.300Z,95.58
2018-03-24T02:27:46.112Z,95.49
2018-03-24T02:30:16.024Z,95.56
2018-03-24T02:32:47.593Z,95.55
2018-03-24T02:35:17.501Z,95.57
2018-03-24T02:37:47.405Z,95.63
2018-03-24T02:40:17.219Z,95.67
2018-03-24T02:42:47.393Z,95.69
2018-03-24T02:45:17.248Z,95.57
2018-03-24T02:47:47.101Z,95.43
2018-03-24T02:50:16.948Z,95.12
2018-03-24T02:52:47.099Z,94.55
2018-03-24T02:55:17.023Z,94.17
2018-03-24T02:57:46.910Z,94.15
2018-03-24T03:00:16.778Z,94.13
2018-03-24T03:02:46.641Z,94.12
2018-03-24T03:05:16.244Z,94.18
2018-03-24T03:07:45.844Z,94.25
2018-03-24T03:10:15.674Z,94.35
2018-03-24T03:12:45.497Z,94.29
2018-03-24T03:15:15.449Z,94.21
2018-03-24T03:17:45.270Z,94.24
2018-03-24T03:20:24.115Z,94.23
2018-03-24T03:22:56.385Z,94.24
2018-03-24T03:25:26.253Z,94.18
2018-03-24T03:27:55.924Z,94.04
2018-03-24T03:33:38.882Z,94.27
2018-03-24T03:36:17.344Z,94.35
2018-03-24T03:38:48.401Z,94.37
2018-03-24T03:41:18.340Z,94.35
2018-03-24T03:43:48.394Z,94.38
2018-03-24T03:46:18.308Z,94.36
2018-03-24T03:48:48.458Z,94.40
2018-03-24T03:51:18.275Z,94.49
2018-03-24T03:53:48.212Z,94.55
2018-03-24T03:56:18.833Z,94.56
2018-03-24T03:58:48.696Z,94.52
2018-03-24T04:01:18.573Z,94.53
2018-03-24T04:03:48.476Z,94.58
2018-03-24T04:06:18.442Z,94.69
2018-03-24T04:08:48.428Z,94.83
2018-03-24T04:11:18.347Z,94.88
2018-03-24T04:13:48.248Z,94.99
2018-03-24T04:16:18.173Z,94.99
2018-03-24T04:18:48.088Z,94.95
2018-03-24T04:21:18.513Z,94.88
2018-03-24T04:23:48.407Z,94.88
2018-03-24T04:26:18.278Z,94.90
2018-03-24T04:28:52.134Z,94.90
2018-03-24T04:31:21.978Z,94.89
2018-03-24T04:33:52.472Z,94.95
2018-03-24T04:36:22.523Z,94.99
2018-03-24T04:38:52.439Z,94.98
2018-03-24T04:41:23.146Z,95.02
2018-03-24T04:43:53.027Z,95.04
2018-03-24T04:46:29.761Z,95.01
2018-03-24T04:49:15.968Z,95.03
2018-03-24T04:51:48.035Z,95.08
2018-03-24T04:54:18.153Z,95.12
2018-03-24T04:56:48.106Z,95.18
2018-03-24T04:59:17.970Z,95.16
2018-03-24T05:01:48.194Z,94.92
2018-03-24T05:04:29.081Z,94.73
2018-03-24T05:07:00.814Z,94.11
2018-03-24T05:09:41.194Z,93.78
2018-03-24T05:12:11.707Z,93.45
2018-03-24T05:14:41.509Z,92.87
2018-03-24T05:17:18.437Z,92.54
2018-03-24T05:19:50.213Z,92.48
2018-03-24T05:22:20.142Z,92.54
2018-03-24T05:24:50.101Z,92.31
2018-03-24T05:27:19.935Z,92.20
2018-03-24T05:29:50.113Z,92.23
2018-03-24T05:32:19.909Z,92.20
2018-03-24T05:34:49.729Z,92.12
2018-03-24T05:37:19.633Z,91.96
2018-03-24T05:39:49.532Z,91.82
2018-03-24T05:42:19.647Z,91.63
2018-03-24T05:44:49.519Z,91.21
2018-03-24T05:47:19.363Z,90.79
2018-03-24T05:49:49.212Z,90.07
2018-03-24T05:52:19.040Z,89.34
2018-03-24T05:54:48.922Z,88.88
2018-03-24T05:57:18.783Z,88.31
2018-03-24T05:59:48.684Z,87.40
2018-03-24T06:02:18.630Z,87.03
2018-03-24T06:04:48.482Z,86.92
2018-03-24T06:07:18.350Z,86.18
2018-03-24T06:09:48.206Z,85.97
2018-03-24T06:12:18.098Z,85.04
2018-03-24T06:14:48.276Z,85.34
2018-03-24T06:17:18.149Z,85.27
2018-03-24T06:19:48.701Z,84.68
2018-03-24T06:22:18.602Z,83.53
2018-03-24T06:24:48.458Z,83.43
2018-03-24T06:27:18.358Z,82.11
2018-03-24T06:29:48.102Z,81.75
2018-03-24T06:32:18.365Z,81.09
2018-03-24T06:34:48.012Z,79.84
2018-03-24T06:37:18.204Z,79.04
2018-03-24T06:39:48.318Z,78.45
2018-03-24T06:42:18.339Z,77.04
2018-03-24T06:44:48.285Z,78.12
2018-03-24T06:47:18.255Z,78.11
2018-03-24T06:49:48.460Z,77.64
2018-03-24T06:52:18.452Z,75.76
2018-03-24T06:54:48.386Z,75.33
2018-03-24T06:57:18.307Z,73.94
2018-03-24T06:59:48.183Z,74.22
2018-03-24T07:02:19.594Z,72.67
2018-03-24T07:04:50.909Z,72.80
2018-03-24T07:07:21.762Z,73.37
2018-03-24T07:09:52.324Z,73.82
2018-03-24T07:12:22.241Z,73.68
2018-03-24T07:14:52.107Z,73.70
2018-03-24T07:17:21.956Z,74.08
2018-03-24T07:19:51.889Z,73.57
2018-03-24T07:22:21.773Z,73.12
2018-03-24T07:24:51.731Z,72.69
2018-03-24T07:27:21.995Z,71.23
2018-03-24T07:29:51.872Z,69.21
2018-03-24T07:32:21.743Z,67.58
2018-03-24T07:34:51.579Z,67.39
2018-03-24T07:37:21.468Z,66.70
2018-03-24T07:39:51.322Z,65.82
2018-03-24T07:42:21.161Z,64.39
2018-03-24T07:44:51.023Z,64.44
2018-03-24T07:47:20.899Z,63.63
2018-03-24T07:49:50.702Z,63.47
2018-03-24T07:52:20.499Z,59.40
2018-03-24T07:54:50.301Z,58.95
2018-03-24T07:57:20.139Z,56.70
2018-03-24T07:59:50.036Z,56.28
2018-03-24T08:02:20.175Z,55.27
2018-03-24T08:04:50.056Z,55.80
2018-03-24T08:07:19.866Z,54.08
2018-03-24T08:09:49.726Z,56.09
2018-03-24T08:12:19.555Z,55.49
2018-03-24T08:14:49.434Z,54.07
2018-03-24T08:17:19.249Z,56.67
2018-03-24T08:19:49.093Z,54.48
2018-03-24T08:22:19.107Z,54.62
2018-03-24T08:24:49.051Z,55.30
2018-03-24T08:27:19.141Z,55.08
2018-03-24T08:29:49.020Z,54.36
2018-03-24T08:32:28.115Z,53.55
2018-03-24T08:34:58.869Z,52.32
2018-03-24T08:37:30.010Z,50.16
2018-03-24T08:40:00.617Z,50.91
2018-03-24T08:42:31.595Z,52.32
2018-03-24T08:45:02.183Z,49.66
2018-03-24T08:47:32.692Z,51.90
2018-03-24T08:50:03.345Z,51.79
2018-03-24T08:52:33.938Z,53.47
2018-03-24T08:55:04.454Z,50.77
2018-03-24T08:57:35.135Z,53.25
2018-03-24T09:00:05.383Z,51.04
2018-03-24T09:02:35.585Z,51.27
2018-03-24T09:05:05.592Z,49.59
2018-03-24T09:07:36.179Z,48.20
2018-03-24T09:10:06.590Z,50.76
2018-03-24T09:12:37.161Z,46.97
2018-03-24T09:15:07.853Z,44.05
2018-03-24T09:17:38.536Z,45.46
2018-03-24T09:20:08.995Z,42.42
2018-03-24T09:22:38.977Z,38.77
2018-03-24T09:25:08.954Z,36.84
2018-03-24T09:27:38.542Z,39.77
2018-03-24T09:30:08.113Z,33.76
2018-03-24T09:32:37.719Z,36.31
2018-03-24T09:35:07.217Z,38.40
2018-03-24T09:37:36.763Z,34.57
2018-03-24T09:40:06.396Z,30.89
2018-03-24T09:42:35.905Z,32.88
2018-03-24T09:45:05.254Z,29.98
2018-03-24T09:47:34.797Z,30.84
2018-03-24T09:50:04.322Z,31.42
2018-03-24T09:52:34.069Z,26.70
2018-03-24T09:55:03.618Z,29.64
2018-03-24T09:57:33.128Z,28.81
2018-03-24T10:00:02.812Z,30.80
2018-03-24T10:02:32.794Z,36.72
2018-03-24T10:05:02.123Z,34.46
2018-03-24T10:07:31.684Z,33.94
2018-03-24T10:10:01.460Z,35.05
2018-03-24T10:12:31.072Z,37.99
2018-03-24T10:15:00.845Z,38.51
2018-03-24T10:17:30.626Z,37.61
2018-03-24T10:20:00.349Z,38.19
2018-03-24T10:25:35.157Z,36.42
2018-03-24T10:28:05.703Z,35.75
2018-03-24T10:30:35.552Z,31.99
2018-03-24T10:33:05.408Z,33.27
2018-03-24T10:35:35.338Z,32.85
2018-03-24T10:38:04.850Z,30.91
2018-03-24T10:40:38.516Z,30.67
2018-03-24T10:43:13.706Z,30.16
2018-03-24T10:45:43.329Z,33.14
2018-03-24T10:48:13.203Z,33.20
2018-03-24T10:50:43.286Z,32.15
2018-03-24T10:53:13.072Z,34.14
2018-03-24T10:55:46.768Z,31.61
2018-03-24T10:58:17.018Z,33.41
2018-03-24T11:00:52.381Z,31.87
2018-03-24T11:03:21.932Z,32.01
2018-03-24T11:05:51.496Z,30.82
2018-03-24T11:08:21.045Z,25.82
2018-03-24T11:10:50.654Z,26.42
2018-03-24T11:13:20.168Z,26.30
2018-03-24T11:15:49.696Z,25.14
2018-03-24T11:18:19.257Z,22.40
2018-03-24T11:20:49.102Z,23.17
2018-03-24T11:23:18.427Z,24.03
2018-03-24T11:25:48.016Z,22.43
2018-03-24T11:28:17.508Z,23.97
2018-03-24T11:30:47.052Z,23.36
2018-03-24T11:33:16.362Z,22.98
2018-03-24T11:35:46.790Z,27.72
2018-03-24T11:38:16.555Z,25.59
2018-03-24T11:40:46.088Z,23.11
2018-03-24T11:43:15.714Z,25.34
2018-03-24T11:45:45.857Z,26.10
2018-03-24T11:48:15.397Z,24.42
2018-03-24T11:50:44.930Z,27.58
2018-03-24T11:53:14.583Z,29.93
2018-03-24T11:55:44.995Z,27.49
2018-03-24T11:58:15.475Z,29.75
2018-03-24T12:00:45.051Z,29.54
2018-03-24T12:03:14.560Z,27.50
2018-03-24T12:05:44.097Z,25.78
2018-03-24T12:08:13.605Z,24.01
2018-03-24T12:10:43.105Z,22.70
2018-03-24T12:13:12.680Z,26.94
2018-03-24T12:15:42.191Z,28.67
2018-03-24T12:18:11.694Z,25.97
2018-03-24T12:20:41.245Z,29.06
2018-03-24T12:23:10.766Z,24.97
2018-03-24T12:25:40.297Z,25.27
2018-03-24T12:28:10.099Z,23.41
2018-03-24T12:30:39.668Z,22.68
2018-03-24T12:33:09.283Z,19.97
2018-03-24T12:35:38.804Z,20.96
2018-03-24T12:38:08.389Z,25.82
2018-03-24T12:40:37.972Z,23.64
2018-03-24T12:43:07.521Z,21.18
2018-03-24T12:45:37.213Z,20.12
2018-03-24T12:48:06.731Z,24.73
2018-03-24T12:50:36.268Z,24.87
2018-03-24T12:53:05.814Z,25.19
2018-03-24T12:55:35.318Z,25.15
2018-03-24T12:58:05.429Z,26.62
2018-03-24T13:00:34.945Z,25.16
2018-03-24T13:03:04.865Z,27.40
2018-03-24T13:05:34.499Z,25.13
2018-03-24T13:08:04.024Z,24.84
2018-03-24T13:10:34.064Z,22.21
2018-03-24T13:13:03.592Z,23.60
2018-03-24T13:15:33.146Z,23.45
2018-03-24T13:18:02.659Z,20.89
2018-03-24T13:20:31.897Z,19.78
2018-03-24T13:23:01.433Z,22.29
2018-03-24T13:25:30.943Z,24.75
2018-03-24T13:28:00.472Z,25.67
2018-03-24T13:30:30.021Z,26.37
2018-03-24T13:32:59.550Z,23.04
2018-03-24T13:35:29.052Z,25.54
2018-03-24T13:37:58.661Z,24.44
2018-03-24T13:40:28.163Z,21.92
2018-03-24T13:42:57.745Z,23.37
2018-03-24T13:45:27.248Z,24.64
2018-03-24T13:47:56.816Z,24.68
2018-03-24T13:50:26.400Z,23.08
2018-03-24T13:52:55.945Z,22.01
2018-03-24T13:55:25.484Z,21.85
2018-03-24T13:57:55.089Z,21.91
2018-03-24T14:00:24.611Z,24.31
2018-03-24T14:02:54.149Z,23.75
2018-03-24T14:05:23.673Z,23.82
2018-03-24T14:07:53.199Z,21.20
2018-03-24T14:10:22.702Z,21.27
2018-03-24T14:12:52.271Z,21.84
2018-03-24T14:15:21.597Z,21.93
2018-03-24T14:17:51.117Z,20.65
2018-03-24T14:20:20.635Z,25.53
2018-03-24T14:22:49.977Z,19.38
2018-03-24T14:25:19.484Z,19.07
2018-03-24T14:27:49.025Z,20.82
2018-03-24T14:30:18.559Z,28.19
2018-03-24T14:32:52.120Z,32.08
2018-03-24T14:35:21.642Z,33.84
2018-03-24T14:37:51.152Z,36.48
2018-03-24T14:40:20.679Z,35.48
2018-03-24T14:42:50.526Z,35.51
2018-03-24T14:45:20.364Z,36.12
2018-03-24T14:47:50.180Z,37.24
2018-03-24T14:50:20.027Z,37.61
2018-03-24T14:52:49.844Z,37.41
2018-03-24T14:55:19.637Z,36.97
2018-03-24T14:57:49.644Z,37.84
2018-03-24T15:00:19.739Z,38.39
2018-03-24T15:02:49.603Z,37.38
2018-03-24T15:05:19.458Z,37.83
2018-03-24T15:07:49.291Z,38.64
2018-03-24T15:10:19.295Z,40.12
2018-03-24T15:12:49.182Z,37.63
2018-03-24T15:15:19.041Z,37.78
2018-03-24T15:17:48.844Z,38.06
2018-03-24T15:20:18.636Z,38.73
2018-03-24T15:22:48.449Z,38.35
2018-03-24T15:25:18.016Z,37.79
2018-03-24T15:27:47.881Z,38.84
2018-03-24T15:30:28.762Z,38.09
2018-03-24T15:33:09.486Z,38.65
2018-03-24T15:35:38.720Z,38.29
2018-03-24T15:38:08.270Z,38.55
2018-03-24T15:40:38.061Z,38.44
2018-03-24T15:43:07.980Z,38.38
2018-03-24T15:45:41.804Z,39.27
2018-03-24T15:48:11.798Z,40.06
2018-03-24T15:50:41.650Z,40.04
2018-03-24T15:53:11.504Z,39.97
2018-03-24T15:55:41.150Z,40.18
2018-03-24T15:58:10.849Z,40.31
2018-03-24T16:00:41.505Z,40.42
2018-03-24T16:03:11.353Z,40.43
2018-03-24T16:05:41.168Z,40.71
2018-03-24T16:08:14.791Z,40.93
2018-03-24T16:10:44.596Z,41.03
2018-03-24T16:13:14.397Z,40.48
2018-03-24T16:15:44.287Z,42.50
2018-03-24T16:18:14.212Z,40.88
2018-03-24T16:20:43.815Z,40.71
2018-03-24T16:23:13.603Z,41.12
2018-03-24T16:25:43.412Z,41.42
2018-03-24T16:28:13.242Z,42.10
2018-03-24T16:30:43.037Z,42.34
2018-03-24T16:33:12.864Z,43.01
2018-03-24T16:35:42.758Z,43.09
2018-03-24T16:38:12.562Z,42.96
2018-03-24T16:40:42.934Z,43.64
2018-03-24T16:43:12.840Z,43.71
2018-03-24T16:45:42.658Z,43.87
2018-03-24T16:48:17.390Z,43.87
2018-03-24T16:50:55.464Z,43.78
2018-03-24T16:53:27.298Z,44.02
2018-03-24T16:55:58.580Z,44.78
2018-03-24T16:58:28.585Z,44.71
2018-03-24T17:00:58.695Z,45.08
2018-03-24T17:03:28.610Z,45.75
2018-03-24T17:05:58.466Z,45.84
2018-03-24T17:08:28.388Z,46.10
2018-03-24T17:10:58.587Z,46.46
2018-03-24T17:13:28.553Z,46.90
2018-03-24T17:15:58.432Z,46.29
2018-03-24T17:18:28.280Z,46.12
2018-03-24T17:20:58.069Z,46.93
2018-03-24T17:23:27.884Z,47.58
2018-03-24T17:25:57.753Z,48.12
2018-03-24T17:28:27.630Z,48.33
2018-03-24T17:30:58.229Z,48.03
2018-03-24T17:33:28.018Z,49.09
2018-03-24T17:35:57.836Z,50.00
2018-03-24T17:38:27.682Z,52.62
2018-03-24T17:40:57.260Z,51.74
2018-03-24T17:43:27.066Z,52.12
2018-03-24T17:45:56.876Z,52.31
2018-03-24T17:48:26.692Z,52.73
2018-03-24T17:50:56.328Z,53.56
2018-03-24T17:53:26.129Z,52.81
2018-03-24T17:55:55.957Z,53.64
2018-03-24T17:58:26.229Z,53.79
2018-03-24T18:00:56.122Z,53.67
2018-03-24T18:03:25.930Z,52.92
2018-03-24T18:05:55.735Z,53.05
2018-03-24T18:08:26.340Z,52.53
2018-03-24T18:10:56.176Z,52.07
2018-03-24T18:13:26.229Z,52.39
2018-03-24T18:15:56.033Z,54.11
2018-03-24T18:18:25.833Z,54.87
2018-03-24T18:20:55.673Z,55.78
2018-03-24T18:23:26.199Z,56.49
2018-03-24T18:25:56.520Z,56.47
2018-03-24T18:28:26.406Z,57.67
2018-03-24T18:30:56.897Z,58.28
2018-03-24T18:33:27.118Z,58.56
2018-03-24T18:35:58.146Z,58.14
2018-03-24T18:38:28.173Z,59.18
2018-03-24T18:40:57.995Z,59.17
2018-03-24T18:43:32.540Z,58.77
2018-03-24T18:46:02.701Z,58.53
2018-03-24T18:48:32.488Z,59.28
2018-03-24T18:51:02.296Z,59.87
2018-03-24T18:53:32.122Z,59.91
2018-03-24T18:56:02.182Z,59.57
2018-03-24T18:58:31.993Z,58.81
2018-03-24T19:01:01.798Z,59.56
2018-03-24T19:03:31.648Z,59.67
2018-03-24T19:06:01.620Z,59.34
2018-03-24T19:08:31.160Z,59.71
2018-03-24T19:11:00.971Z,60.16
2018-03-24T19:13:30.817Z,60.36
2018-03-24T19:16:00.904Z,60.33
2018-03-24T19:18:30.701Z,60.52
2018-03-24T19:21:00.516Z,60.34
2018-03-24T19:23:30.344Z,59.91
2018-03-24T19:26:00.613Z,60.01
2018-03-24T19:28:30.422Z,60.44
2018-03-24T19:31:00.357Z,60.47
2018-03-24T19:33:30.191Z,60.84
2018-03-24T19:35:59.996Z,61.03
2018-03-24T19:38:29.819Z,61.09
2018-03-24T19:41:00.428Z,60.68
2018-03-24T19:43:30.232Z,61.29
2018-03-24T19:46:00.750Z,61.38
2018-03-24T19:48:30.638Z,61.20
2018-03-24T19:51:00.475Z,61.49
2018-03-24T19:53:30.479Z,61.07
2018-03-24T19:56:00.275Z,61.33
2018-03-24T19:58:30.091Z,61.06
2018-03-24T20:00:59.984Z,61.18
2018-03-24T20:03:30.493Z,61.70
2018-03-24T20:06:00.325Z,62.45
2018-03-24T20:08:30.774Z,61.39
2018-03-24T20:11:00.573Z,61.29
2018-03-24T20:13:30.401Z,62.10
2018-03-24T20:16:00.733Z,61.40
2018-03-24T20:18:35.879Z,62.01
2018-03-24T20:21:06.104Z,62.03
2018-03-24T20:23:36.652Z,62.97
2018-03-24T20:26:07.188Z,61.34
2018-03-24T20:28:37.006Z,61.56
2018-03-24T20:31:06.796Z,61.13
2018-03-24T20:33:36.593Z,61.32
2018-03-24T20:36:06.623Z,61.11
2018-03-24T20:38:36.427Z,61.64
2018-03-24T20:41:06.289Z,62.07
2018-03-24T20:43:36.104Z,62.07
2018-03-24T20:46:05.943Z,62.36
2018-03-24T20:48:35.732Z,62.91
2018-03-24T20:51:05.612Z,63.04
2018-03-24T20:53:35.311Z,62.81
2018-03-24T20:56:05.102Z,63.10
2018-03-24T20:58:34.934Z,63.20
2018-03-24T21:01:04.732Z,63.81
2018-03-24T21:03:34.652Z,64.06
2018-03-24T21:06:04.607Z,63.53
2018-03-24T21:08:35.150Z,64.09
2018-03-24T21:11:05.653Z,63.93
2018-03-24T21:13:36.160Z,64.46
2018-03-24T21:16:06.382Z,64.40
2018-03-24T21:18:42.122Z,64.68
2018-03-24T21:21:12.183Z,64.55
2018-03-24T21:23:42.018Z,64.33
2018-03-24T21:26:11.950Z,64.63
2018-03-24T21:28:41.855Z,65.04
2018-03-24T21:31:11.765Z,65.34
2018-03-24T21:33:42.191Z,65.33
2018-03-24T21:36:12.140Z,65.07
2018-03-24T21:38:42.108Z,64.93
2018-03-24T21:41:11.987Z,63.97
2018-03-24T21:43:42.433Z,64.02
2018-03-24T21:46:12.647Z,63.72
2018-03-24T21:48:42.498Z,64.12
2018-03-24T21:51:12.405Z,64.35
2018-03-24T21:53:42.226Z,64.48
2018-03-24T21:56:12.233Z,64.83
2018-03-24T21:58:42.182Z,65.54
2018-03-24T22:01:12.581Z,65.00
2018-03-24T22:03:42.536Z,65.19
2018-03-24T22:06:12.362Z,64.65
2018-03-24T22:08:42.236Z,62.96
2018-03-24T22:11:12.067Z,62.09
2018-03-24T22:13:42.036Z,61.84
2018-03-24T22:16:11.957Z,59.98
2018-03-24T22:18:41.612Z,60.49
2018-03-24T22:21:11.421Z,60.96
2018-03-24T22:23:42.349Z,59.26
2018-03-24T22:26:12.786Z,59.50
2018-03-24T22:28:42.860Z,60.39
2018-03-24T22:31:12.802Z,61.07
2018-03-24T22:33:43.195Z,60.99
2018-03-24T22:36:13.150Z,61.13
2018-03-24T22:38:42.984Z,61.46
2018-03-24T22:41:12.911Z,61.53
2018-03-24T22:43:42.802Z,62.05
2018-03-24T22:46:12.695Z,61.86
2018-03-24T22:48:42.578Z,63.30
2018-03-24T22:51:12.590Z,64.62
2018-03-24T22:53:42.609Z,65.27
2018-03-24T22:56:12.515Z,65.42
2018-03-24T22:58:42.357Z,65.89
2018-03-24T23:01:12.315Z,66.20
2018-03-24T23:03:42.328Z,66.78
2018-03-24T23:06:12.890Z,67.30
2018-03-24T23:08:42.874Z,67.86
2018-03-24T23:11:13.324Z,68.61
2018-03-24T23:13:43.150Z,68.34
2018-03-24T23:16:12.729Z,68.20
2018-03-24T23:18:42.669Z,68.59
2018-03-24T23:21:12.578Z,69.02
2018-03-24T23:23:42.493Z,69.54
2018-03-24T23:26:12.418Z,69.83
2018-03-24T23:28:42.270Z,70.34
2018-03-24T23:31:12.134Z,70.68
2018-03-24T23:33:42.003Z,70.33
2018-03-24T23:36:11.881Z,70.59
2018-03-24T23:38:41.696Z,70.93
2018-03-24T23:41:11.833Z,71.00
2018-03-24T23:43:41.681Z,71.52
2018-03-24T23:46:11.373Z,71.84
2018-03-24T23:48:41.257Z,72.04
2018-03-24T23:51:11.968Z,72.41
2018-03-24T23:53:41.781Z,72.82
2018-03-24T23:56:11.676Z,73.08
2018-03-24T23:58:41.649Z,73.25
